• Join FlightAware (Why Join?)
  • Login
  • US Flag 
08:56PM EDT


 

Airport Tracker/Info


-or-


 

Live Flight TrackerFlight Track Log ✈ ANZ832 ✈ 21-Apr-2013 ✈ YSSY / SYD - NZQN

Flight Track Log - Related Links

Times and Time Zones

All times are in EDT time to prevent confusion due to time zone crossing. See the ANZ832 flight status page for this flight to view local times or setup timezone preferences in your user account.

Time Position Orientation Groundspeed Altitude Reporting Facility
EDT Latitude Longitude Course Direction KTS MPH feet Rate Location/Type
06:44PM -33.9753 151.1822 189° South 154 177 1,400  Level Aus ATC (RADAR)
06:44PM -33.9920 151.1790 187° South 162 186 2,300 1,860 Climbing FlightAware
06:44PM -34.0091 151.1766 187° South 173 199 2,800 1,440 Climbing Aus ATC (RADAR)
06:45PM -34.0160 151.1760 187° South 197 227 2,900 1,740 Climbing FlightAware
06:45PM -34.0630 151.1830 173° South 252 290 4,400 2,460 Climbing FlightAware
06:46PM -34.0820 151.1910 161° South 265 305 5,400 3,420 Climbing FlightAware
06:46PM -34.1109 151.2047 161° South 277 319 6,600 2,640 Climbing Aus ATC (RADAR)
06:46PM -34.1110 151.2040 161° South 288 331 6,500 1,860 Descending FlightAware
06:47PM -34.1520 151.2180 164° South 312 359 7,600 3,000 Climbing FlightAware
06:47PM -34.1890 151.2280 167° South 316 364 9,300 3,720 Climbing FlightAware
06:47PM -34.2090 151.2410 152° Southeast 321 369 10,100 3,120 Climbing FlightAware
06:47PM -34.2180 151.2520 135° Southeast 321 369 10,600 3,000 Climbing FlightAware
06:48PM -34.2300 151.2870 113° Southeast 336 387 11,600 2,700 Climbing FlightAware
06:48PM -34.2410 151.3650 100° East 357 411 13,300 2,820 Climbing FlightAware
06:49PM -34.2489 151.4224 100° East 356 410 14,800 2,520 Climbing Aus ATC (RADAR)
06:49PM -34.2520 151.4440 100° East 372 428 15,000 1,980 Climbing FlightAware
06:50PM -34.2624 151.5159 100° East 374 430 16,300 2,220 Climbing Aus ATC (RADAR)
06:50PM -34.2660 151.5400 100° East 387 445 16,700 2,280 Climbing FlightAware
06:51PM -34.2810 151.6461 100° East 391 450 18,600 1,860 Climbing Aus ATC (RADAR)
06:51PM -34.2870 151.6840 100° East 413 475 18,900 1,680 Climbing FlightAware
06:51PM -34.2963 151.7495 100° East 411 473 19,900 2,160 Climbing Aus ATC (RADAR)
06:52PM -34.3170 151.8872 100° East 430 495 21,800 1,680 Climbing Aus ATC (RADAR)
06:52PM -34.3170 151.8850 100° East 437 503 21,700 2,040 Descending FlightAware
06:53PM -34.3481 151.9956 100° East 427 491 23,400 1,920 Climbing Aus ATC (RADAR)
06:53PM -34.3670 152.0400 100° East 437 503 23,800 1,440 Climbing FlightAware
06:54PM -34.4056 152.1203 100° East 432 497 24,800 1,320 Climbing Aus ATC (RADAR)
06:54PM -34.4030 152.1150 100° East 445 512 24,600 1,620 Descending FlightAware
06:55PM -34.4547 152.2220 100° East 440 506 26,100 1,620 Climbing Aus ATC (RADAR)
06:55PM -34.4590 152.2300 100° East 453 521 26,100 1,080 Level FlightAware
06:56PM -34.5000 152.3160 120° Southeast 460 529 27,000 1,440 Climbing FlightAware
06:56PM -34.5410 152.4000 120° Southeast 466 536 27,900 1,800 Climbing FlightAware
06:56PM -34.5495 152.4180 120° Southeast 454 522 28,200 1,200 Climbing Aus ATC (RADAR)
06:57PM -34.5940 152.5110 120° Southeast 474 545 28,900 1,200 Climbing FlightAware
06:57PM -34.6210 152.5668 120° Southeast 464 534 29,500 1,020 Climbing Aus ATC (RADAR)
06:58PM -34.6350 152.5970 120° Southeast 480 552 29,600 1,020 Climbing FlightAware
06:58PM -34.6731 152.6757 120° Southeast 472 543 30,300 1,320 Climbing Aus ATC (RADAR)
06:58PM -34.6830 152.6970 120° Southeast 486 559 30,500 1,500 Climbing FlightAware
06:59PM -34.7347 152.8051 120° Southeast 473 544 31,700 1,440 Climbing Aus ATC (RADAR)
06:59PM -34.7330 152.8020 120° Southeast 483 556 31,600 1,080 Descending FlightAware
07:00PM -34.7750 152.8910 120° Southeast 481 554 32,500 900 Climbing FlightAware
07:01PM -34.8300 153.0080 120° Southeast 477 549 33,100 1,440 Climbing FlightAware
07:01PM -34.8941 153.1425 120° Southeast 464 534 35,000 2,160 Climbing Aus ATC (RADAR)
07:02PM -34.8940 153.1400 120° Southeast 476 548 34,900 -180 Descending FlightAware
07:02PM -34.9370 153.2360 119° Southeast 476 548 34,900 960 Level FlightAware
07:03PM -34.9768 153.3169 119° Southeast 466 536 36,100  Climbing Aus ATC (RADAR)
07:03PM -34.9820 153.3360 119° Southeast 476 548 34,900 -1,140 Descending FlightAware
07:04PM -35.0190 153.4160 119° Southeast 476 548 34,900 2,400 Level FlightAware
07:04PM -35.0761 153.5298 119° Southeast 471 542 37,600 4,020 Climbing Aus ATC (RADAR)
07:04PM -35.0850 153.5500 119° Southeast 477 549 37,600 900 Level FlightAware
07:05PM -35.1250 153.6360 119° Southeast 467 537 38,300 1,200 Climbing Aus ATC (RADAR)
07:05PM -35.1350 153.6580 119° Southeast 469 540 38,500 540 Climbing FlightAware
07:06PM -35.1780 153.7500 120° Southeast 472 543 38,800 420 Climbing FlightAware
07:07PM -35.2308 153.8557 120° Southeast 464 534 39,100 240 Climbing Aus ATC (RADAR)
07:07PM -35.2270 153.8540 120° Southeast 472 543 39,000 -180 Descending FlightAware
07:07PM -35.2700 153.9490 119° Southeast 477 549 39,000 60 Level FlightAware
07:08PM -35.3027 154.0235 119° Southeast 465 535 39,100  Climbing Aus ATC (RADAR)
07:08PM -35.3090 154.0340 119° Southeast 478 550 39,000  Descending FlightAware
07:08PM -35.3430 154.1053 119° Southeast 467 537 39,100  Climbing Aus ATC (RADAR)
07:09PM -35.3470 154.1200 119° Southeast 478 550 39,000  Descending FlightAware
07:09PM -35.4070 154.2501 119° Southeast 469 540 39,100 60 Climbing Aus ATC (RADAR)
07:10PM -35.4180 154.2720 119° Southeast 39,000  Descending FlightAware
07:10PM -35.4669 154.3522 119° Southeast 475 547 39,100  Climbing Aus ATC (RADAR)
07:11PM -35.5394 154.5241 117° Southeast 472 543 39,000 -60 Descending Aus ATC (RADAR)
07:12PM -35.5741 154.6114 116° Southeast 470 541 39,000  Level Aus ATC (RADAR)
07:13PM -35.6402 154.7544 120° Southeast 465 535 39,000  Level Aus ATC (RADAR)
07:13PM -35.6634 154.7853 133° Southeast 464 534 39,000 120 Level Aus ATC (RADAR)
07:14PM -35.7060 154.8604 125° Southeast 460 529 39,100  Climbing Aus ATC (RADAR)
07:15PM -35.7771 154.9876 125° Southeast 464 534 39,000 -120 Descending Aus ATC (RADAR)
07:15PM -35.8140 155.0382 132° Southeast 466 536 39,000  Level Aus ATC (RADAR)
07:20PM -36.1821 155.6889 125° Southeast 39,000  Level Aus ATC (Calculated)
07:22PM -36.3094 155.9169 125° Southeast  Level FlightAware Approximate
07:23PM -36.3896 156.0613 125° Southeast  Level FlightAware Approximate
07:23PM -36.4550 156.1795 124° Southeast 39,000  Level Aus ATC (Calculated)
07:24PM -36.4696 156.2059 125° Southeast  Level FlightAware Approximate
07:24PM -36.5111 156.2813 124° Southeast 39,000  Level Aus ATC (Calculated)
07:25PM -36.5663 156.3816 124° Southeast 39,000  Level Aus ATC (Calculated)
07:26PM -36.6187 156.4773 124° Southeast  Level FlightAware Approximate
07:27PM -36.7134 156.6508 124° Southeast  Level FlightAware Approximate
07:28PM -36.7927 156.7966 124° Southeast  Level FlightAware Approximate
07:28PM -36.7827 156.7781 124° Southeast 39,000  Level Aus ATC (Calculated)
07:30PM -36.9290 157.0487 124° Southeast  Level FlightAware Approximate
07:31PM -37.0078 157.1954 124° Southeast  Level FlightAware Approximate
07:31PM -36.9844 157.1518 360° North 39,000  Level Aus ATC (Calculated)
07:31PM -36.9844 157.1518 124° Southeast 39,000  Level Aus ATC (Calculated)
07:33PM -37.1376 157.4386 124° Southeast  Level FlightAware Approximate
07:34PM -37.2160 157.5862 124° Southeast  Level FlightAware Approximate
07:35PM -37.2941 157.7340 124° Southeast  Level FlightAware Approximate
07:36PM -37.3721 157.8821 124° Southeast  Level FlightAware Approximate
07:37PM -37.4498 158.0306 123° Southeast  Level FlightAware Approximate
07:38PM -37.5274 158.1793 123° Southeast  Level FlightAware Approximate
07:39PM -37.6048 158.3284 123° Southeast  Level FlightAware Approximate
07:40PM -37.6820 158.4778 123° Southeast  Level FlightAware Approximate
07:41PM -37.7590 158.6275 123° Southeast  Level FlightAware Approximate
07:42PM -37.8359 158.7775 123° Southeast  Level FlightAware Approximate
07:43PM -37.9125 158.9278 123° Southeast  Level FlightAware Approximate
07:44PM -37.9890 159.0784 123° Southeast  Level FlightAware Approximate
07:45PM -38.0652 159.2293 123° Southeast  Level FlightAware Approximate
07:46PM -38.1413 159.3806 123° Southeast  Level FlightAware Approximate
07:47PM -38.2171 159.5322 123° Southeast  Level FlightAware Approximate
07:48PM -38.2928 159.6840 122° Southeast  Level FlightAware Approximate
07:49PM -38.3683 159.8362 122° Southeast  Level FlightAware Approximate
07:50PM -38.4436 159.9888 122° Southeast  Level FlightAware Approximate
07:51PM -38.5187 160.1416 122° Southeast  Level FlightAware Approximate
07:52PM -38.5935 160.2948 122° Southeast  Level FlightAware Approximate
07:53PM -38.6682 160.4482 122° Southeast  Level FlightAware Approximate
07:54PM -38.7427 160.6020 122° Southeast  Level FlightAware Approximate
07:54PM -38.6818 160.4763 122° Southeast 39,000  Level Aus ATC (Calculated)
07:55PM -38.7563 160.6302 122° Southeast  Level FlightAware Approximate
07:56PM -38.8305 160.7843 122° Southeast  Level FlightAware Approximate
07:56PM -38.8319 160.7872 122° Southeast 39,000  Level Aus ATC (Calculated)
07:57PM -38.9059 160.9417 122° Southeast  Level FlightAware Approximate
07:58PM -38.9797 161.0965 122° Southeast  Level FlightAware Approximate
07:59PM -39.0533 161.2516 121° Southeast  Level FlightAware Approximate
08:00PM -39.1268 161.4071 121° Southeast  Level FlightAware Approximate
08:01PM -39.2000 161.5629 121° Southeast  Level FlightAware Approximate
08:02PM -39.2730 161.7190 121° Southeast  Level FlightAware Approximate
08:03PM -39.3458 161.8755 121° Southeast  Level FlightAware Approximate
08:04PM -39.4184 162.0322 121° Southeast  Level FlightAware Approximate
08:05PM -39.4908 162.1893 121° Southeast  Level FlightAware Approximate
08:06PM -39.5104 162.2321 121° Southeast 39,000  Level Aus ATC (Calculated)
08:06PM -39.5629 162.3468 121° Southeast  Level FlightAware Approximate
08:06PM -39.5104 162.2321 121° Southeast 39,000  Level Aus ATC (Calculated)
08:07PM -39.5825 162.3896 121° Southeast  Level FlightAware Approximate
08:08PM -39.6544 162.5474 121° Southeast  Level FlightAware Approximate
08:09PM -39.7261 162.7056 121° Southeast  Level FlightAware Approximate
08:10PM -39.7975 162.8641 120° Southeast  Level FlightAware Approximate
08:11PM -39.8688 163.0229 120° Southeast  Level FlightAware Approximate
08:12PM -39.7975 162.8641 300° West  Level FlightAware Approximate
08:13PM -39.8688 163.0229 120° Southeast  Level FlightAware Approximate
08:14PM -39.9073 163.1091 120° Southeast  Level FlightAware Approximate
08:15PM -39.9783 163.2683 120° Southeast  Level FlightAware Approximate
08:16PM -40.0490 163.4280 120° Southeast  Level FlightAware Approximate
08:17PM -40.1196 163.5879 120° Southeast  Level FlightAware Approximate
08:18PM -40.1936 163.7439 143° Southeast  Level FlightAware Approximate
08:19PM -40.3068 163.8545 143° Southeast  Level FlightAware Approximate
08:20PM -40.4199 163.9656 143° Southeast  Level FlightAware Approximate
08:21PM -40.5329 164.0770 143° Southeast  Level FlightAware Approximate
08:22PM -41.2049 164.1948 139° Southeast  Level FlightAware Approximate
08:23PM -41.3097 164.3208 138° Southeast  Level FlightAware Approximate
08:24PM -41.4143 164.4472 138° Southeast  Level FlightAware Approximate
08:25PM -41.5188 164.5741 138° Southeast  Level FlightAware Approximate
08:26PM -41.6232 164.7013 138° Southeast  Level FlightAware Approximate
08:27PM -41.7274 164.8289 138° Southeast  Level FlightAware Approximate
08:28PM -41.8315 164.9570 138° Southeast  Level FlightAware Approximate
08:29PM -41.9354 165.0854 137° Southeast  Level FlightAware Approximate
08:30PM -42.0392 165.2143 137° Southeast  Level FlightAware Approximate
08:31PM -42.1428 165.3436 137° Southeast  Level FlightAware Approximate
08:32PM -42.2464 165.4734 137° Southeast  Level FlightAware Approximate
08:33PM -42.3497 165.6035 137° Southeast  Level FlightAware Approximate
08:34PM -42.4529 165.7341 137° Southeast  Level FlightAware Approximate
08:35PM -42.5560 165.8651 137° Southeast  Level FlightAware Approximate
08:36PM -42.6589 165.9966 137° Southeast  Level FlightAware Approximate
08:37PM -42.7686 166.1177 146° Southeast  Level Estimated
08:38PM -42.8782 166.2391 141° Southeast  Level FlightAware Approximate
08:39PM -42.9877 166.3610 141° Southeast  Level FlightAware Approximate
08:40PM -43.0970 166.4834 141° Southeast  Level FlightAware Approximate
08:41PM -43.2063 166.6061 141° Southeast  Level FlightAware Approximate
08:42PM -43.3154 166.7294 141° Southeast  Level FlightAware Approximate
08:43PM -43.4243 166.8530 141° Southeast  Level FlightAware Approximate
08:44PM -43.5331 166.9771 140° Southeast  Level FlightAware Approximate
08:45PM -43.6418 167.1016 140° Southeast  Level FlightAware Approximate
08:46PM -43.7503 167.2267 146° Southeast  Level Estimated
08:47PM -43.8587 167.3523 146° Southeast  Level Estimated
08:48PM -43.9669 167.4783 146° Southeast  Level Estimated
08:49PM -44.0750 167.6047 146° Southeast  Level Estimated
08:50PM -44.1829 167.7316 146° Southeast  Level Estimated
08:51PM -44.2907 167.8590 146° Southeast  Level Estimated
08:52PM -44.3984 167.9869 146° Southeast  Level Estimated
08:53PM -44.5059 168.1152 146° Southeast  Level Estimated
08:54PM -44.6133 168.2440 146° Southeast  Level Estimated
08:55PM -44.7205 168.3733 146° Southeast  Level Estimated
08:56PM -44.8276 168.5030 146° Southeast  Level Estimated
08:57PM -44.9346 168.6333 146° Southeast  Level Estimated
08:58PM -45.0228 168.7392 146° Southeast  Level FlightAware Approximate
08:59PM -45.0211 168.7392 146° Southeast  Level Estimated
09:00PM -45.0228 168.7392 146° Southeast  Level FlightAware Approximate
09:01PM -45.0211 168.7392 146° Southeast  Level Estimated
09:02PM -45.0228 168.7392 146° Southeast  Level FlightAware Approximate
09:03PM -45.0211 168.7392 146° Southeast  Level Estimated
09:04PM -45.0228 168.7392 146° Southeast  Level FlightAware Approximate
09:05PM -45.0211 168.7392 146° Southeast  Level Estimated
09:06PM -45.0228 168.7392 146° Southeast  Level FlightAware Approximate